sensor_id;sensor_type;location;lat;lon;timestamp;P1;durP1;ratioP1;P2;durP2;ratioP2
43540;SDS011;29549;40.386;-3.710;2023-02-01T00:03:25;21.13;;;10.93;;
43540;SDS011;29549;40.386;-3.710;2023-02-01T00:13:29;14.57;;;11.05;;
43540;SDS011;29549;40.386;-3.710;2023-02-01T00:23:32;22.05;;;10.70;;
43540;SDS011;29549;40.386;-3.710;2023-02-01T00:33:35;22.30;;;12.25;;
43540;SDS011;29549;40.386;-3.710;2023-02-01T00:43:37;25.58;;;11.60;;
43540;SDS011;29549;40.386;-3.710;2023-02-01T00:53:39;21.70;;;12.60;;
43540;SDS011;29549;40.386;-3.710;2023-02-01T01:03:43;18.48;;;11.13;;
43540;SDS011;29549;40.386;-3.710;2023-02-01T01:13:48;22.02;;;10.52;;
43540;SDS011;29549;40.386;-3.710;2023-02-01T01:23:51;17.90;;;11.77;;
43540;SDS011;29549;40.386;-3.710;2023-02-01T01:33:55;17.77;;;11.63;;
43540;SDS011;29549;40.386;-3.710;2023-02-01T01:44:00;17.92;;;11.32;;
43540;SDS011;29549;40.386;-3.710;2023-02-01T01:54:06;18.58;;;10.82;;
43540;SDS011;29549;40.386;-3.710;2023-02-01T02:04:26;20.13;;;11.07;;
43540;SDS011;29549;40.386;-3.710;2023-02-01T02:14:28;20.67;;;11.90;;
43540;SDS011;29549;40.386;-3.710;2023-02-01T02:34:57;19.20;;;11.90;;
43540;SDS011;29549;40.386;-3.710;2023-02-01T02:55:52;18.48;;;11.95;;
43540;SDS011;29549;40.386;-3.710;2023-02-01T03:06:32;15.65;;;11.10;;
43540;SDS011;29549;40.386;-3.710;2023-02-01T03:16:46;17.97;;;10.87;;
43540;SDS011;29549;40.386;-3.710;2023-02-01T03:26:55;17.85;;;10.90;;
43540;SDS011;29549;40.386;-3.710;2023-02-01T03:37:03;19.50;;;11.52;;
43540;SDS011;29549;40.386;-3.710;2023-02-01T03:47:18;16.77;;;10.23;;
43540;SDS011;29549;40.386;-3.710;2023-02-01T03:57:35;15.65;;;10.23;;
43540;SDS011;29549;40.386;-3.710;2023-02-01T04:07:48;16.95;;;9.15;;
43540;SDS011;29549;40.386;-3.710;2023-02-01T04:17:51;17.42;;;9.88;;
43540;SDS011;29549;40.386;-3.710;2023-02-01T04:27:54;16.67;;;11.05;;
43540;SDS011;29549;40.386;-3.710;2023-02-01T04:37:57;16.50;;;9.50;;
43540;SDS011;29549;40.386;-3.710;2023-02-01T04:48:15;14.52;;;9.60;;
43540;SDS011;29549;40.386;-3.710;2023-02-01T04:58:18;15.90;;;9.65;;
43540;SDS011;29549;40.386;-3.710;2023-02-01T05:08:19;14.02;;;9.38;;
43540;SDS011;29549;40.386;-3.710;2023-02-01T05:18:24;13.80;;;8.93;;
43540;SDS011;29549;40.386;-3.710;2023-02-01T05:28:26;15.68;;;9.05;;
43540;SDS011;29549;40.386;-3.710;2023-02-01T05:38:29;16.58;;;9.18;;
43540;SDS011;29549;40.386;-3.710;2023-02-01T05:48:34;16.70;;;9.15;;
43540;SDS011;29549;40.386;-3.710;2023-02-01T05:58:36;16.55;;;8.70;;
43540;SDS011;29549;40.386;-3.710;2023-02-01T06:08:38;17.60;;;10.20;;
43540;SDS011;29549;40.386;-3.710;2023-02-01T06:18:43;13.35;;;8.30;;
43540;SDS011;29549;40.386;-3.710;2023-02-01T06:28:44;13.35;;;7.82;;
43540;SDS011;29549;40.386;-3.710;2023-02-01T06:38:47;14.20;;;9.15;;
43540;SDS011;29549;40.386;-3.710;2023-02-01T06:48:48;15.98;;;9.45;;
43540;SDS011;29549;40.386;-3.710;2023-02-01T06:58:51;15.02;;;8.48;;
43540;SDS011;29549;40.386;-3.710;2023-02-01T07:08:53;16.35;;;9.95;;
43540;SDS011;29549;40.386;-3.710;2023-02-01T07:18:56;15.30;;;7.90;;
43540;SDS011;29549;40.386;-3.710;2023-02-01T07:28:59;14.80;;;8.80;;
43540;SDS011;29549;40.386;-3.710;2023-02-01T07:39:02;13.40;;;8.15;;
43540;SDS011;29549;40.386;-3.710;2023-02-01T07:49:04;14.68;;;8.05;;
43540;SDS011;29549;40.386;-3.710;2023-02-01T07:59:06;15.77;;;8.73;;
43540;SDS011;29549;40.386;-3.710;2023-02-01T08:09:08;14.05;;;7.47;;
43540;SDS011;29549;40.386;-3.710;2023-02-01T08:19:11;11.95;;;8.05;;
43540;SDS011;29549;40.386;-3.710;2023-02-01T08:29:13;17.45;;;8.90;;
43540;SDS011;29549;40.386;-3.710;2023-02-01T08:39:14;11.85;;;6.97;;
43540;SDS011;29549;40.386;-3.710;2023-02-01T08:49:16;16.13;;;6.90;;
43540;SDS011;29549;40.386;-3.710;2023-02-01T08:59:17;12.55;;;6.97;;
43540;SDS011;29549;40.386;-3.710;2023-02-01T09:09:19;12.10;;;6.63;;
43540;SDS011;29549;40.386;-3.710;2023-02-01T09:19:20;15.38;;;8.88;;
43540;SDS011;29549;40.386;-3.710;2023-02-01T09:29:22;4.68;;;3.20;;
43540;SDS011;29549;40.386;-3.710;2023-02-01T09:39:24;5.30;;;2.85;;
43540;SDS011;29549;40.386;-3.710;2023-02-01T09:49:27;4.72;;;2.92;;
43540;SDS011;29549;40.386;-3.710;2023-02-01T09:59:34;4.57;;;2.42;;
43540;SDS011;29549;40.386;-3.710;2023-02-01T10:30:30;6.10;;;2.70;;
43540;SDS011;29549;40.386;-3.710;2023-02-01T10:40:38;5.72;;;3.33;;
43540;SDS011;29549;40.386;-3.710;2023-02-01T10:51:24;4.22;;;2.90;;
43540;SDS011;29549;40.386;-3.710;2023-02-01T11:01:08;4.43;;;3.05;;
43540;SDS011;29549;40.386;-3.710;2023-02-01T11:11:11;4.65;;;2.72;;
43540;SDS011;29549;40.386;-3.710;2023-02-01T11:21:14;8.40;;;3.83;;
43540;SDS011;29549;40.386;-3.710;2023-02-01T11:31:16;4.47;;;3.35;;
43540;SDS011;29549;40.386;-3.710;2023-02-01T12:01:56;6.03;;;2.90;;
43540;SDS011;29549;40.386;-3.710;2023-02-01T12:12:15;4.35;;;2.85;;
43540;SDS011;29549;40.386;-3.710;2023-02-01T12:22:40;4.50;;;2.75;;
43540;SDS011;29549;40.386;-3.710;2023-02-01T12:33:11;10.07;;;8.55;;
43540;SDS011;29549;40.386;-3.710;2023-02-01T13:04:15;4.60;;;2.80;;
43540;SDS011;29549;40.386;-3.710;2023-02-01T13:14:32;5.55;;;3.58;;
43540;SDS011;29549;40.386;-3.710;2023-02-01T13:45:35;6.10;;;3.65;;
43540;SDS011;29549;40.386;-3.710;2023-02-01T13:55:44;5.07;;;3.55;;
43540;SDS011;29549;40.386;-3.710;2023-02-01T14:16:11;6.72;;;3.50;;
43540;SDS011;29549;40.386;-3.710;2023-02-01T14:26:18;6.38;;;3.78;;
43540;SDS011;29549;40.386;-3.710;2023-02-01T14:36:20;6.18;;;3.85;;
43540;SDS011;29549;40.386;-3.710;2023-02-01T14:57:03;6.30;;;3.70;;
43540;SDS011;29549;40.386;-3.710;2023-02-01T15:07:05;6.13;;;3.22;;
43540;SDS011;29549;40.386;-3.710;2023-02-01T15:27:24;11.18;;;4.70;;
43540;SDS011;29549;40.386;-3.710;2023-02-01T15:37:27;6.90;;;4.32;;
43540;SDS011;29549;40.386;-3.710;2023-02-01T15:47:29;8.45;;;4.78;;
43540;SDS011;29549;40.386;-3.710;2023-02-01T15:57:33;9.45;;;4.57;;
43540;SDS011;29549;40.386;-3.710;2023-02-01T16:07:36;9.67;;;5.10;;
43540;SDS011;29549;40.386;-3.710;2023-02-01T16:17:38;6.47;;;4.50;;
43540;SDS011;29549;40.386;-3.710;2023-02-01T16:27:39;9.18;;;4.82;;
43540;SDS011;29549;40.386;-3.710;2023-02-01T16:37:41;8.20;;;4.78;;
43540;SDS011;29549;40.386;-3.710;2023-02-01T16:47:45;14.48;;;6.97;;
43540;SDS011;29549;40.386;-3.710;2023-02-01T16:57:53;9.23;;;6.30;;
43540;SDS011;29549;40.386;-3.710;2023-02-01T17:07:55;11.38;;;7.38;;
43540;SDS011;29549;40.386;-3.710;2023-02-01T17:18:00;11.52;;;7.80;;
43540;SDS011;29549;40.386;-3.710;2023-02-01T17:28:02;13.77;;;7.72;;
43540;SDS011;29549;40.386;-3.710;2023-02-01T17:38:05;15.93;;;7.82;;
43540;SDS011;29549;40.386;-3.710;2023-02-01T17:48:11;17.88;;;8.85;;
43540;SDS011;29549;40.386;-3.710;2023-02-01T17:58:14;18.40;;;10.18;;
43540;SDS011;29549;40.386;-3.710;2023-02-01T18:08:17;18.60;;;10.45;;
43540;SDS011;29549;40.386;-3.710;2023-02-01T18:18:21;18.77;;;9.57;;
43540;SDS011;29549;40.386;-3.710;2023-02-01T18:28:23;25.98;;;12.45;;
43540;SDS011;29549;40.386;-3.710;2023-02-01T18:38:27;25.93;;;13.20;;
43540;SDS011;29549;40.386;-3.710;2023-02-01T18:48:40;27.08;;;15.55;;
43540;SDS011;29549;40.386;-3.710;2023-02-01T18:58:42;34.35;;;15.82;;
43540;SDS011;29549;40.386;-3.710;2023-02-01T19:08:44;28.85;;;16.65;;
43540;SDS011;29549;40.386;-3.710;2023-02-01T19:18:50;41.08;;;19.85;;
43540;SDS011;29549;40.386;-3.710;2023-02-01T19:38:53;32.20;;;17.10;;
43540;SDS011;29549;40.386;-3.710;2023-02-01T19:48:55;29.08;;;15.18;;
43540;SDS011;29549;40.386;-3.710;2023-02-01T19:58:56;53.22;;;23.50;;
43540;SDS011;29549;40.386;-3.710;2023-02-01T20:08:58;17.25;;;9.15;;
43540;SDS011;29549;40.386;-3.710;2023-02-01T20:19:00;9.20;;;5.18;;
43540;SDS011;29549;40.386;-3.710;2023-02-01T20:29:01;9.63;;;5.80;;
43540;SDS011;29549;40.386;-3.710;2023-02-01T20:39:06;9.27;;;5.65;;
43540;SDS011;29549;40.386;-3.710;2023-02-01T20:49:10;11.48;;;5.45;;
43540;SDS011;29549;40.386;-3.710;2023-02-01T20:59:11;8.48;;;4.40;;
43540;SDS011;29549;40.386;-3.710;2023-02-01T21:09:14;6.28;;;3.70;;
43540;SDS011;29549;40.386;-3.710;2023-02-01T21:19:16;9.52;;;5.63;;
43540;SDS011;29549;40.386;-3.710;2023-02-01T21:29:17;9.43;;;4.80;;
43540;SDS011;29549;40.386;-3.710;2023-02-01T21:39:19;10.63;;;6.03;;
43540;SDS011;29549;40.386;-3.710;2023-02-01T21:49:22;17.73;;;9.93;;
43540;SDS011;29549;40.386;-3.710;2023-02-01T21:59:25;12.07;;;4.60;;
43540;SDS011;29549;40.386;-3.710;2023-02-01T22:09:27;15.73;;;10.88;;
43540;SDS011;29549;40.386;-3.710;2023-02-01T22:19:29;8.82;;;5.57;;
43540;SDS011;29549;40.386;-3.710;2023-02-01T22:29:30;8.45;;;5.25;;
43540;SDS011;29549;40.386;-3.710;2023-02-01T22:39:32;9.75;;;5.55;;
43540;SDS011;29549;40.386;-3.710;2023-02-01T22:49:33;11.40;;;5.55;;
43540;SDS011;29549;40.386;-3.710;2023-02-01T22:59:35;10.07;;;5.18;;
43540;SDS011;29549;40.386;-3.710;2023-02-01T23:09:36;11.18;;;5.28;;
43540;SDS011;29549;40.386;-3.710;2023-02-01T23:19:39;10.25;;;5.53;;
43540;SDS011;29549;40.386;-3.710;2023-02-01T23:29:41;8.02;;;5.13;;
43540;SDS011;29549;40.386;-3.710;2023-02-01T23:39:42;9.57;;;5.32;;
43540;SDS011;29549;40.386;-3.710;2023-02-01T23:49:43;8.90;;;4.95;;
43540;SDS011;29549;40.386;-3.710;2023-02-01T23:59:45;7.03;;;3.97;;
